createdAt,value
2022-08-29T00:02:25.417Z,7.32
2022-08-29T00:05:13.602Z,9.40
2022-08-29T00:08:04.753Z,10.07
2022-08-29T00:10:53.027Z,12.00
2022-08-29T00:13:41.818Z,8.82
2022-08-29T00:16:30.045Z,8.45
2022-08-29T00:19:20.320Z,10.38
2022-08-29T00:22:08.536Z,9.18
2022-08-29T00:24:56.680Z,12.02
2022-08-29T00:27:45.265Z,11.18
2022-08-29T00:30:38.704Z,8.52
2022-08-29T00:33:27.264Z,13.32
2022-08-29T00:36:16.808Z,11.40
2022-08-29T00:39:05.564Z,10.48
2022-08-29T00:41:57.633Z,14.00
2022-08-29T00:44:46.155Z,9.10
2022-08-29T00:47:38.456Z,10.93
2022-08-29T00:50:29.895Z,10.70
2022-08-29T00:53:23.812Z,11.27
2022-08-29T00:56:15.593Z,8.02
2022-08-29T00:59:08.375Z,11.77
2022-08-29T01:01:56.704Z,9.30
2022-08-29T01:04:45.699Z,9.07
2022-08-29T01:07:34.510Z,10.23
2022-08-29T01:10:45.065Z,9.75
2022-08-29T01:13:37.347Z,15.55
2022-08-29T01:16:28.150Z,11.45
2022-08-29T01:19:24.297Z,10.05
2022-08-29T01:22:48.513Z,14.25
2022-08-29T01:25:42.282Z,8.70
2022-08-29T01:28:33.412Z,10.40
2022-08-29T01:31:37.675Z,10.13
2022-08-29T01:34:34.170Z,5.82
2022-08-29T01:37:22.823Z,10.75
2022-08-29T01:40:12.152Z,13.00
2022-08-29T01:43:01.803Z,10.63
2022-08-29T01:45:50.252Z,7.10
2022-08-29T01:48:39.914Z,8.43
2022-08-29T01:51:28.114Z,9.57
2022-08-29T01:54:16.670Z,8.90
2022-08-29T01:57:08.576Z,9.98
2022-08-29T02:00:00.710Z,12.45
2022-08-29T02:02:48.918Z,10.95
2022-08-29T02:05:37.103Z,12.90
2022-08-29T02:08:25.242Z,9.45
2022-08-29T02:11:15.883Z,9.07
2022-08-29T02:14:04.651Z,12.25
2022-08-29T02:16:54.285Z,8.07
2022-08-29T02:19:43.529Z,8.15
2022-08-29T02:22:31.984Z,11.57
2022-08-29T02:25:38.987Z,11.60
2022-08-29T02:28:27.166Z,14.68
2022-08-29T02:31:16.666Z,9.60
2022-08-29T02:34:06.371Z,9.38
2022-08-29T02:36:54.554Z,9.27
2022-08-29T02:39:44.651Z,7.38
2022-08-29T02:42:32.846Z,8.10
2022-08-29T02:45:22.045Z,12.00
2022-08-29T02:48:12.002Z,10.85
2022-08-29T02:51:01.510Z,14.95
2022-08-29T02:53:50.699Z,16.42
2022-08-29T02:56:39.210Z,16.40
2022-08-29T02:59:27.845Z,13.38
2022-08-29T03:02:16.132Z,10.40
2022-08-29T03:05:04.588Z,11.48
2022-08-29T03:07:54.172Z,16.48
2022-08-29T03:10:43.986Z,12.75
2022-08-29T03:13:32.216Z,10.80
2022-08-29T03:16:20.400Z,10.52
2022-08-29T03:19:08.586Z,14.65
2022-08-29T03:21:56.727Z,11.50
2022-08-29T03:24:46.380Z,11.40
2022-08-29T03:27:35.633Z,9.73
2022-08-29T03:30:24.215Z,13.77
2022-08-29T03:33:12.461Z,13.98
2022-08-29T03:36:00.682Z,10.25
2022-08-29T03:38:49.424Z,14.18
2022-08-29T03:41:38.925Z,10.77
2022-08-29T03:44:27.255Z,6.32
2022-08-29T03:47:16.712Z,15.73
2022-08-29T03:50:05.438Z,12.75
2022-08-29T03:52:53.608Z,11.90
2022-08-29T03:55:42.324Z,10.43
2022-08-29T03:58:31.834Z,13.07
2022-08-29T04:01:20.200Z,13.85
2022-08-29T04:04:08.494Z,8.55
2022-08-29T04:06:56.687Z,10.60
2022-08-29T04:09:45.039Z,11.45
2022-08-29T04:12:33.206Z,11.75
2022-08-29T04:15:23.289Z,8.50
2022-08-29T04:18:12.267Z,10.40
2022-08-29T04:21:03.258Z,10.75
2022-08-29T04:26:41.088Z,14.38
2022-08-29T04:29:29.432Z,10.85
2022-08-29T04:32:19.909Z,10.68
2022-08-29T04:35:09.332Z,13.32
2022-08-29T04:37:57.919Z,13.35
2022-08-29T04:40:46.294Z,11.07
2022-08-29T04:43:34.625Z,16.55
2022-08-29T04:46:23.958Z,12.52
2022-08-29T04:49:14.239Z,10.37
2022-08-29T04:52:02.553Z,8.48
2022-08-29T04:54:50.953Z,15.32
2022-08-29T04:57:39.639Z,11.05
2022-08-29T05:00:30.408Z,14.18
2022-08-29T05:03:18.916Z,14.20
2022-08-29T05:06:13.760Z,11.32
2022-08-29T05:09:01.954Z,11.90
2022-08-29T05:11:50.255Z,9.60
2022-08-29T05:14:38.410Z,8.18
2022-08-29T05:17:27.048Z,10.70
2022-08-29T05:20:15.272Z,8.60
2022-08-29T05:23:04.803Z,12.98
2022-08-29T05:25:56.879Z,11.95
2022-08-29T05:28:47.089Z,13.65
2022-08-29T05:31:36.683Z,11.70
2022-08-29T05:34:34.033Z,13.43
2022-08-29T05:37:23.274Z,16.17
2022-08-29T05:40:13.220Z,16.85
2022-08-29T05:43:01.541Z,12.45
2022-08-29T05:45:49.767Z,13.23
2022-08-29T05:48:42.141Z,9.15
2022-08-29T05:51:37.254Z,10.55
2022-08-29T05:54:29.476Z,10.63
2022-08-29T06:00:10.608Z,15.07
2022-08-29T06:02:58.876Z,10.00
2022-08-29T06:05:51.857Z,14.82
2022-08-29T06:08:40.050Z,15.15
2022-08-29T06:11:31.924Z,11.45
2022-08-29T06:14:21.883Z,12.85
2022-08-29T06:17:10.091Z,10.95
2022-08-29T06:19:58.270Z,8.13
2022-08-29T06:22:46.436Z,15.35
2022-08-29T06:25:39.857Z,12.98
2022-08-29T06:28:28.787Z,11.52
2022-08-29T06:31:21.601Z,10.82
2022-08-29T06:34:10.781Z,13.85
2022-08-29T06:36:59.467Z,11.13
2022-08-29T06:39:47.708Z,9.35
2022-08-29T06:42:36.048Z,11.35
2022-08-29T06:45:24.317Z,17.75
2022-08-29T06:48:14.010Z,12.82
2022-08-29T06:51:04.900Z,12.23
2022-08-29T06:53:53.825Z,17.25
2022-08-29T06:56:42.636Z,10.52
2022-08-29T06:59:31.047Z,12.15
2022-08-29T07:02:21.221Z,9.75
2022-08-29T07:05:13.236Z,13.52
2022-08-29T07:08:04.641Z,17.50
2022-08-29T07:10:53.614Z,14.90
2022-08-29T07:13:43.029Z,16.95
2022-08-29T07:16:32.854Z,14.05
2022-08-29T07:19:21.536Z,13.10
2022-08-29T07:22:14.667Z,14.60
2022-08-29T07:25:03.567Z,13.38
2022-08-29T07:27:53.491Z,13.30
2022-08-29T07:30:42.120Z,11.13
2022-08-29T07:33:31.389Z,11.88
2022-08-29T07:36:20.003Z,13.70
2022-08-29T07:39:13.051Z,19.45
2022-08-29T07:42:01.498Z,13.43
2022-08-29T07:44:50.015Z,10.23
2022-08-29T07:47:39.062Z,14.65
2022-08-29T07:50:27.606Z,15.68
2022-08-29T07:53:18.644Z,14.15
2022-08-29T07:56:10.519Z,13.02
2022-08-29T07:59:00.263Z,13.27
2022-08-29T08:01:49.581Z,9.65
2022-08-29T08:04:38.053Z,11.90
2022-08-29T08:07:29.591Z,11.93
2022-08-29T08:10:20.499Z,10.85
2022-08-29T08:15:59.612Z,13.73
2022-08-29T08:18:48.647Z,7.25
2022-08-29T08:21:37.257Z,10.35
2022-08-29T08:24:33.302Z,11.30
2022-08-29T08:27:22.225Z,14.18
2022-08-29T08:30:13.470Z,20.50
2022-08-29T08:33:04.988Z,13.90
2022-08-29T08:35:53.608Z,13.23
2022-08-29T08:38:42.245Z,12.55
2022-08-29T08:41:44.351Z,8.75
2022-08-29T08:44:58.129Z,13.20
2022-08-29T08:47:51.372Z,11.73
2022-08-29T08:50:45.954Z,12.10
2022-08-29T08:53:37.381Z,10.27
2022-08-29T08:56:33.584Z,12.45
2022-08-29T08:59:28.521Z,10.95
2022-08-29T09:02:28.139Z,14.05
2022-08-29T09:05:32.913Z,11.40
2022-08-29T09:08:29.831Z,17.33
2022-08-29T09:11:25.064Z,9.50
2022-08-29T09:14:27.549Z,11.90
2022-08-29T09:17:21.226Z,10.13
2022-08-29T09:20:13.269Z,8.82
2022-08-29T09:23:05.844Z,10.23
2022-08-29T09:25:54.057Z,8.98
2022-08-29T09:28:42.260Z,12.20
2022-08-29T09:31:33.403Z,10.98
2022-08-29T09:35:04.380Z,9.75
2022-08-29T09:37:55.508Z,9.40
2022-08-29T09:40:50.417Z,10.50
2022-08-29T09:43:50.458Z,10.18
2022-08-29T09:46:38.830Z,7.82
2022-08-29T09:49:26.983Z,10.45
2022-08-29T09:52:17.372Z,9.65
2022-08-29T09:55:29.834Z,6.78
2022-08-29T09:58:39.548Z,7.55
2022-08-29T10:01:29.714Z,8.70
2022-08-29T10:04:38.562Z,8.93
2022-08-29T10:07:29.231Z,10.48
2022-08-29T10:13:11.800Z,10.00
2022-08-29T10:16:08.905Z,10.90
2022-08-29T10:19:00.177Z,8.88
2022-08-29T10:21:58.242Z,6.40
2022-08-29T10:24:58.280Z,9.70
2022-08-29T10:27:53.622Z,5.32
2022-08-29T10:30:54.758Z,12.35
2022-08-29T10:34:02.029Z,7.93
2022-08-29T10:36:57.255Z,7.93
2022-08-29T10:39:57.542Z,8.88
2022-08-29T10:42:47.504Z,9.60
2022-08-29T10:45:47.277Z,5.68
2022-08-29T10:48:43.731Z,9.88
2022-08-29T10:51:41.982Z,6.50
2022-08-29T10:54:37.490Z,6.63
2022-08-29T10:57:41.095Z,7.55
2022-08-29T11:00:39.269Z,7.18
2022-08-29T11:03:40.151Z,4.63
2022-08-29T11:06:33.081Z,7.93
2022-08-29T11:09:28.720Z,5.60
2022-08-29T11:12:19.593Z,5.30
2022-08-29T11:15:16.586Z,9.80
2022-08-29T11:18:11.872Z,6.13
2022-08-29T11:21:10.938Z,5.43
2022-08-29T11:24:03.113Z,4.35
2022-08-29T11:27:02.777Z,5.40
2022-08-29T11:29:58.186Z,3.92
2022-08-29T11:32:58.815Z,5.00
2022-08-29T11:39:07.278Z,4.45
2022-08-29T11:41:59.994Z,6.18
2022-08-29T11:44:51.684Z,6.72
2022-08-29T11:47:58.005Z,4.78
2022-08-29T11:50:47.308Z,6.53
2022-08-29T11:53:35.878Z,7.28
2022-08-29T11:56:28.262Z,4.60
2022-08-29T11:59:46.950Z,5.88
2022-08-29T12:02:48.731Z,3.35
2022-08-29T12:06:00.321Z,5.07
2022-08-29T12:08:56.551Z,5.05
2022-08-29T12:12:20.161Z,6.43
2022-08-29T12:15:46.986Z,4.05
2022-08-29T12:18:46.563Z,4.88
2022-08-29T12:21:49.880Z,6.70
2022-08-29T12:24:44.240Z,5.85
2022-08-29T12:28:08.261Z,4.50
2022-08-29T12:31:08.100Z,6.32
2022-08-29T12:34:10.774Z,4.78
2022-08-29T12:37:33.572Z,6.00
2022-08-29T12:40:41.690Z,4.63
2022-08-29T12:43:37.163Z,2.65
2022-08-29T12:46:30.262Z,5.45
2022-08-29T12:49:24.158Z,3.65
2022-08-29T12:52:23.659Z,5.07
2022-08-29T12:55:23.943Z,3.90
2022-08-29T12:58:35.948Z,3.47
2022-08-29T13:01:30.699Z,3.42
2022-08-29T13:04:23.217Z,6.03
2022-08-29T13:07:18.366Z,8.68
2022-08-29T13:10:08.058Z,5.47
2022-08-29T13:13:05.872Z,3.67
2022-08-29T13:15:55.808Z,5.50
2022-08-29T13:19:00.148Z,5.07
2022-08-29T13:21:50.137Z,5.63
2022-08-29T13:24:38.384Z,3.90
2022-08-29T13:27:26.801Z,9.35
2022-08-29T13:30:23.893Z,8.38
2022-08-29T13:33:34.754Z,5.47
2022-08-29T13:36:31.512Z,5.57
2022-08-29T13:39:27.088Z,5.20
2022-08-29T13:42:22.078Z,7.45
2022-08-29T13:45:14.460Z,5.78
2022-08-29T13:48:21.228Z,7.18
2022-08-29T13:51:09.490Z,6.72
2022-08-29T13:53:57.932Z,13.60
2022-08-29T13:56:50.634Z,5.20
2022-08-29T13:59:39.345Z,6.95
2022-08-29T14:02:27.673Z,4.63
2022-08-29T14:05:16.117Z,6.65
2022-08-29T14:08:05.905Z,4.50
2022-08-29T14:10:54.117Z,3.55
2022-08-29T14:13:43.909Z,6.28
2022-08-29T14:16:32.114Z,4.78
2022-08-29T14:19:20.410Z,5.20
2022-08-29T14:22:10.509Z,4.53
2022-08-29T14:24:58.744Z,5.70
2022-08-29T14:27:48.358Z,3.05
2022-08-29T14:30:37.884Z,3.53
2022-08-29T14:33:26.045Z,2.80
2022-08-29T14:36:14.251Z,4.70
2022-08-29T14:39:02.812Z,4.93
2022-08-29T14:41:51.028Z,6.18
2022-08-29T14:44:40.067Z,3.30
2022-08-29T14:47:29.594Z,5.35
2022-08-29T14:50:18.004Z,10.23
2022-08-29T14:53:06.543Z,13.88
2022-08-29T14:55:55.699Z,8.60
2022-08-29T14:58:44.040Z,5.90
2022-08-29T15:01:32.485Z,4.13
2022-08-29T15:04:27.461Z,6.30
2022-08-29T15:07:24.631Z,7.55
2022-08-29T15:10:16.688Z,4.00
2022-08-29T15:13:07.275Z,5.30
2022-08-29T15:15:55.496Z,7.85
2022-08-29T15:19:24.912Z,4.97
2022-08-29T15:21:53.478Z,4.97
2022-08-29T15:24:44.506Z,5.25
2022-08-29T15:27:33.310Z,4.85
2022-08-29T15:30:24.266Z,4.35
2022-08-29T15:33:12.430Z,7.97
2022-08-29T15:36:00.660Z,8.02
2022-08-29T15:38:50.207Z,7.78
2022-08-29T15:41:38.757Z,3.30
2022-08-29T15:44:28.339Z,4.63
2022-08-29T15:47:16.899Z,4.82
2022-08-29T15:50:07.435Z,3.20
2022-08-29T15:52:55.994Z,5.57
2022-08-29T15:55:46.216Z,3.70
2022-08-29T15:58:34.418Z,5.70
2022-08-29T16:01:22.669Z,5.43
2022-08-29T16:04:11.358Z,4.43
2022-08-29T16:06:59.952Z,7.55
2022-08-29T16:09:48.137Z,8.15
2022-08-29T16:12:38.079Z,6.68
2022-08-29T16:15:27.716Z,5.18
2022-08-29T16:18:16.164Z,4.85
2022-08-29T16:21:04.797Z,7.78
2022-08-29T16:23:53.813Z,4.22
2022-08-29T16:26:45.582Z,7.88
2022-08-29T16:29:35.496Z,5.72
2022-08-29T16:32:23.730Z,4.10
2022-08-29T16:35:12.766Z,4.45
2022-08-29T16:38:02.886Z,5.00
2022-08-29T16:40:51.734Z,3.70
2022-08-29T16:43:41.297Z,4.45
2022-08-29T16:46:31.342Z,3.33
2022-08-29T16:49:20.225Z,3.58
2022-08-29T16:52:09.002Z,4.95
2022-08-29T16:54:57.295Z,4.82
2022-08-29T16:58:06.230Z,3.65
2022-08-29T17:00:54.446Z,8.32
2022-08-29T17:03:44.326Z,3.53
2022-08-29T17:06:33.707Z,5.50
2022-08-29T17:09:23.809Z,3.95
2022-08-29T17:12:11.126Z,3.45
2022-08-29T17:14:59.136Z,4.97
2022-08-29T17:17:47.355Z,3.33
2022-08-29T17:20:37.882Z,4.05
2022-08-29T17:23:26.336Z,4.18
2022-08-29T17:26:17.215Z,4.72
2022-08-29T17:29:06.298Z,7.07
2022-08-29T17:31:54.488Z,3.65
2022-08-29T17:34:44.036Z,6.55
2022-08-29T17:37:36.314Z,9.57
2022-08-29T17:40:25.336Z,7.30
2022-08-29T17:43:14.874Z,6.85
2022-08-29T17:46:03.150Z,6.38
2022-08-29T17:48:51.406Z,8.30
2022-08-29T17:51:40.334Z,4.03
2022-08-29T17:54:29.876Z,2.90
2022-08-29T17:57:18.101Z,4.30
2022-08-29T18:00:08.304Z,5.03
2022-08-29T18:02:56.617Z,5.57
2022-08-29T18:05:44.853Z,6.38
2022-08-29T18:08:33.090Z,3.90
2022-08-29T18:11:22.606Z,8.07
2022-08-29T18:14:11.354Z,4.00
2022-08-29T18:16:59.630Z,5.90
2022-08-29T18:19:47.908Z,7.80
2022-08-29T18:22:36.406Z,9.60
2022-08-29T18:25:24.686Z,6.78
2022-08-29T18:28:14.531Z,7.20
2022-08-29T18:31:03.922Z,11.70
2022-08-29T18:34:01.014Z,12.57
2022-08-29T18:36:49.775Z,17.02
2022-08-29T18:39:37.968Z,17.33
2022-08-29T18:42:39.909Z,13.40
2022-08-29T18:45:30.434Z,17.52
2022-08-29T18:48:18.711Z,18.30
2022-08-29T18:51:07.454Z,19.73
2022-08-29T18:53:57.546Z,24.92
2022-08-29T18:56:47.978Z,14.20
2022-08-29T18:59:36.267Z,11.30
2022-08-29T19:02:26.905Z,17.88
2022-08-29T19:05:16.552Z,11.00
2022-08-29T19:08:05.451Z,18.83
2022-08-29T19:10:55.405Z,15.57
2022-08-29T19:13:43.933Z,8.75
2022-08-29T19:16:33.769Z,18.10
2022-08-29T19:19:23.352Z,4.40
2022-08-29T19:22:11.747Z,7.03
2022-08-29T19:25:01.245Z,5.38
2022-08-29T19:27:53.991Z,3.55
2022-08-29T19:30:42.901Z,7.47
2022-08-29T19:33:32.036Z,8.32
2022-08-29T19:36:23.471Z,5.13
2022-08-29T19:39:11.689Z,2.97
2022-08-29T19:41:59.867Z,6.90
2022-08-29T19:44:48.087Z,5.25
2022-08-29T19:47:36.609Z,3.55
2022-08-29T19:50:25.168Z,3.55
2022-08-29T19:53:26.173Z,1.40
2022-08-29T19:56:14.861Z,2.03
2022-08-29T19:59:03.179Z,2.67
2022-08-29T20:01:51.464Z,10.70
2022-08-29T20:04:39.749Z,2.15
2022-08-29T20:07:27.930Z,2.53
2022-08-29T20:10:21.365Z,2.63
2022-08-29T20:13:10.715Z,1.83
2022-08-29T20:15:58.936Z,2.60
2022-08-29T20:18:47.530Z,2.38
2022-08-29T20:21:38.911Z,2.08
2022-08-29T20:24:27.150Z,0.95
2022-08-29T20:27:16.741Z,1.13
2022-08-29T20:30:05.824Z,1.02
2022-08-29T20:32:54.414Z,2.50
2022-08-29T20:36:00.101Z,1.23
2022-08-29T20:38:48.285Z,2.63
2022-08-29T20:41:36.525Z,0.80
2022-08-29T20:44:33.501Z,2.42
2022-08-29T20:47:23.803Z,0.85
2022-08-29T20:50:12.588Z,2.58
2022-08-29T20:53:00.791Z,5.75
2022-08-29T20:55:49.073Z,2.03
2022-08-29T20:58:37.259Z,1.10
2022-08-29T21:01:26.923Z,0.40
2022-08-29T21:04:33.250Z,3.60
2022-08-29T21:07:21.817Z,1.08
2022-08-29T21:10:10.637Z,1.05
2022-08-29T21:12:59.239Z,0.30
2022-08-29T21:15:48.232Z,2.13
2022-08-29T21:18:37.813Z,0.95
2022-08-29T21:21:26.532Z,1.08
2022-08-29T21:24:15.774Z,3.05
2022-08-29T21:27:04.343Z,1.00
2022-08-29T21:29:55.546Z,1.38
2022-08-29T21:32:43.752Z,3.03
2022-08-29T21:35:33.509Z,1.08
2022-08-29T21:38:22.138Z,3.88
2022-08-29T21:41:11.629Z,1.13
2022-08-29T21:43:59.963Z,1.02
2022-08-29T21:46:48.693Z,2.17
2022-08-29T21:49:37.150Z,1.00
2022-08-29T21:52:26.850Z,1.25
2022-08-29T21:55:15.761Z,0.75
2022-08-29T21:58:04.239Z,0.77
2022-08-29T22:00:53.102Z,1.33
2022-08-29T22:03:41.545Z,0.50
2022-08-29T22:06:30.033Z,1.65
2022-08-29T22:09:19.896Z,1.33
2022-08-29T22:12:10.095Z,2.50
2022-08-29T22:15:15.763Z,1.48
2022-08-29T22:18:05.618Z,0.60
2022-08-29T22:20:55.680Z,0.93
2022-08-29T22:23:44.658Z,2.17
2022-08-29T22:26:35.375Z,0.57
2022-08-29T22:32:11.698Z,0.75
2022-08-29T22:35:00.567Z,0.50
2022-08-29T22:37:50.667Z,2.22
2022-08-29T22:40:41.717Z,0.90
2022-08-29T22:43:31.536Z,1.13
2022-08-29T22:46:22.485Z,0.65
2022-08-29T22:49:10.994Z,1.10
2022-08-29T22:51:59.215Z,2.13
2022-08-29T22:54:47.629Z,0.95
2022-08-29T22:57:36.507Z,1.33
2022-08-29T23:00:27.236Z,1.08
2022-08-29T23:03:16.071Z,3.70
2022-08-29T23:06:05.135Z,1.67
2022-08-29T23:08:54.118Z,1.92
2022-08-29T23:11:42.470Z,3.35
2022-08-29T23:14:30.972Z,2.13
2022-08-29T23:17:20.964Z,0.85
2022-08-29T23:20:12.123Z,0.60
2022-08-29T23:23:00.381Z,2.30
2022-08-29T23:25:48.983Z,6.35
2022-08-29T23:28:37.312Z,10.73
2022-08-29T23:31:26.370Z,6.15
2022-08-29T23:34:16.348Z,2.63
2022-08-29T23:37:05.211Z,1.48
2022-08-29T23:39:53.527Z,1.65
2022-08-29T23:42:41.774Z,0.70
2022-08-29T23:45:30.045Z,2.00
2022-08-29T23:48:18.566Z,1.30
2022-08-29T23:51:15.039Z,0.77
2022-08-29T23:54:03.345Z,1.48
2022-08-29T23:56:51.546Z,0.70
2022-08-29T23:59:57.458Z,2.75
